Time;durP1;ratioP1;P1;durP2;ratioP2;P2;SDS_P1;SDS_P2;PMS_P1;PMS_P2;Temp;Humidity;BMP_temperature;BMP_pressure;BME280_temperature;BME280_humidity;BME280_pressure;Samples;Min_cycle;Max_cycle;Signal;HPM_P1;HPM_P2
2022/01/01 00:00:52;;;;;;;25.07;21.90;;;12.20;99.90;;;;;;5061693;28;20433;-62
2022/01/01 00:03:19;;;;;;;30.30;20.93;;;12.20;99.90;;;;;;5058438;28;20490;-62
2022/01/01 00:05:48;;;;;;;25.63;20.97;;;12.20;99.90;;;;;;5058367;28;20545;-62
2022/01/01 00:08:16;;;;;;;24.70;18.93;;;12.20;99.90;;;;;;5058181;28;20805;-62
2022/01/01 00:10:43;;;;;;;32.10;19.27;;;12.20;99.90;;;;;;5057466;28;20812;-62
2022/01/01 00:13:13;;;;;;;29.90;20.20;;;12.20;99.90;;;;;;5056302;28;20462;-62
2022/01/01 00:15:40;;;;;;;24.73;18.47;;;12.20;99.90;;;;;;5049809;28;20513;-62
2022/01/01 00:18:07;;;;;;;24.83;17.10;;;12.20;99.90;;;;;;5056241;28;20817;-62
2022/01/01 00:20:34;;;;;;;22.60;17.80;;;12.20;99.90;;;;;;5053667;28;20454;-62
2022/01/01 00:23:02;;;;;;;25.93;17.07;;;12.20;99.90;;;;;;5046759;28;20467;-63
2022/01/01 00:25:31;;;;;;;23.47;16.67;;;12.20;99.90;;;;;;5049972;28;20539;-62
2022/01/01 00:28:01;;;;;;;23.03;18.63;;;12.20;99.90;;;;;;5053519;28;20561;-62
2022/01/01 00:30:30;;;;;;;24.20;18.40;;;12.20;99.90;;;;;;5055586;28;20454;-62
2022/01/01 00:32:57;;;;;;;31.30;18.77;;;12.20;99.90;;;;;;5058249;28;20454;-62
2022/01/01 00:35:25;;;;;;;23.83;17.37;;;12.20;99.90;;;;;;5058434;28;20454;-62
2022/01/01 00:37:53;;;;;;;27.37;17.63;;;12.30;99.90;;;;;;5056106;28;20466;-63
2022/01/01 00:40:25;;;;;;;22.27;16.47;;;12.20;99.90;;;;;;5057467;28;21563;-62
2022/01/01 00:42:54;;;;;;;30.13;18.87;;;12.20;99.90;;;;;;5055819;28;20462;-62
2022/01/01 00:45:21;;;;;;;21.37;14.93;;;12.20;99.90;;;;;;5059311;28;20552;-62
2022/01/01 00:47:51;;;;;;;23.10;16.10;;;12.20;99.90;;;;;;5060682;28;20520;-62
2022/01/01 00:50:18;;;;;;;20.50;17.47;;;12.20;99.90;;;;;;5059503;28;20512;-62
2022/01/01 00:52:46;;;;;;;20.87;15.93;;;12.20;99.90;;;;;;5061039;28;20461;-62
2022/01/01 00:55:13;;;;;;;22.93;16.40;;;12.20;99.90;;;;;;5061267;28;20462;-62
2022/01/01 00:57:42;;;;;;;25.60;15.00;;;12.20;99.90;;;;;;5057210;28;20911;-62
2022/01/01 01:00:10;;;;;;;25.77;15.13;;;12.20;99.90;;;;;;5054592;28;20469;-63
2022/01/01 01:02:37;;;;;;;19.90;14.47;;;12.20;99.90;;;;;;5056513;28;20462;-62
2022/01/01 01:05:05;;;;;;;19.17;13.90;;;12.20;99.90;;;;;;5059937;28;20493;-62
2022/01/01 01:07:34;;;;;;;23.13;17.03;;;12.20;99.90;;;;;;5072833;28;20441;-62
2022/01/01 01:10:01;;;;;;;22.37;14.70;;;12.10;99.90;;;;;;5059334;28;20498;-62
2022/01/01 01:12:38;;;;;;;18.60;13.13;;;12.20;99.90;;;;;;5059615;28;20466;-62
2022/01/01 01:15:11;;;;;;;26.37;16.07;;;12.20;99.90;;;;;;5063256;28;21085;-62
2022/01/01 01:17:38;;;;;;;26.83;14.60;;;12.20;99.90;;;;;;5060236;28;20454;-62
2022/01/01 01:20:06;;;;;;;26.20;14.70;;;12.20;99.90;;;;;;5059959;28;20450;-62
2022/01/01 01:22:33;;;;;;;21.60;13.43;;;12.20;99.90;;;;;;5057760;28;20450;-62
2022/01/01 01:25:10;;;;;;;19.97;13.80;;;12.20;99.90;;;;;;5059232;28;20545;-62
2022/01/01 01:27:44;;;;;;;25.67;13.87;;;12.20;99.90;;;;;;5056238;28;20768;-62
2022/01/01 01:30:16;;;;;;;17.37;12.80;;;12.20;99.90;;;;;;5057685;28;20459;-62
2022/01/01 01:32:43;;;;;;;24.03;14.37;;;12.10;99.90;;;;;;5057906;28;20548;-62
2022/01/01 01:35:14;;;;;;;18.77;11.87;;;12.20;99.90;;;;;;5058568;28;20520;-62
2022/01/01 01:37:42;;;;;;;22.10;13.43;;;12.20;99.90;;;;;;5058965;28;20462;-62
2022/01/01 01:40:13;;;;;;;19.90;13.60;;;12.20;99.90;;;;;;5059574;28;20494;-62
2022/01/01 01:42:43;;;;;;;20.33;13.40;;;12.20;99.90;;;;;;5059189;28;20507;-62
2022/01/01 01:45:16;;;;;;;17.93;13.67;;;12.20;99.90;;;;;;5058607;28;20577;-62
2022/01/01 01:47:45;;;;;;;17.83;13.33;;;12.20;99.90;;;;;;5059545;28;20523;-62
2022/01/01 01:50:16;;;;;;;19.27;11.60;;;12.30;99.90;;;;;;5058635;28;20458;-62
2022/01/01 01:52:51;;;;;;;18.20;13.30;;;12.20;99.90;;;;;;5058977;28;20911;-62
2022/01/01 01:55:18;;;;;;;22.43;14.47;;;12.30;99.90;;;;;;5058394;28;20468;-62
2022/01/01 01:57:46;;;;;;;23.07;14.37;;;12.30;99.90;;;;;;5039679;28;20525;-62
2022/01/01 02:00:32;;;;;;;22.37;16.30;;;12.20;99.90;;;;;;5040295;28;20652;-62
2022/01/01 02:03:03;;;;;;;24.60;15.77;;;12.30;99.90;;;;;;5042097;28;20881;-62
2022/01/01 02:05:30;;;;;;;30.77;16.67;;;12.20;99.90;;;;;;5059972;28;20504;-62
2022/01/01 02:07:57;;;;;;;22.00;16.10;;;12.20;99.90;;;;;;5059460;28;20466;-62
2022/01/01 02:10:25;;;;;;;27.40;16.60;;;12.20;99.90;;;;;;5057874;28;20588;-62
2022/01/01 02:12:55;;;;;;;22.20;16.20;;;12.20;99.90;;;;;;5057872;28;20543;-62
2022/01/01 02:15:41;;;;;;;24.13;17.90;;;12.20;99.90;;;;;;5058959;28;21325;-62
2022/01/01 02:18:10;;;;;;;22.13;15.67;;;12.20;99.90;;;;;;5056129;28;20466;-62
2022/01/01 02:20:38;;;;;;;21.53;15.93;;;12.20;99.90;;;;;;5058677;28;20459;-62
2022/01/01 02:23:06;;;;;;;22.63;16.30;;;12.20;99.90;;;;;;5058405;28;20455;-62
2022/01/01 02:25:33;;;;;;;28.97;17.20;;;12.20;99.90;;;;;;5058708;28;20909;-62
2022/01/01 02:28:00;;;;;;;21.53;15.13;;;12.30;99.90;;;;;;5058490;28;20872;-62
2022/01/01 02:30:28;;;;;;;25.50;16.00;;;12.30;96.70;;;;;;5055794;28;20454;-62
2022/01/01 02:32:55;;;;;;;24.70;17.00;;;12.20;44.40;;;;;;5058312;28;20872;-62
2022/01/01 02:35:22;;;;;;;27.80;16.03;;;12.20;28.90;;;;;;5058240;28;20458;-62
2022/01/01 02:37:50;;;;;;;21.90;14.60;;;12.20;1.00;;;;;;5055718;28;20470;-62
2022/01/01 02:40:17;;;;;;;25.43;16.03;;;12.20;1.00;;;;;;5057878;28;20458;-62
2022/01/01 02:42:45;;;;;;;28.70;15.53;;;12.20;1.00;;;;;;5058600;28;20862;-62
2022/01/01 02:45:13;;;;;;;26.37;16.10;;;12.20;1.00;;;;;;5058196;28;20452;-63
2022/01/01 02:47:41;;;;;;;22.67;16.00;;;12.20;1.00;;;;;;5058242;28;20462;-62
2022/01/01 02:50:10;;;;;;;21.10;14.70;;;12.10;99.90;;;;;;5054584;28;20512;-62
2022/01/01 02:52:37;;;;;;;28.87;16.80;;;12.20;99.90;;;;;;5057542;28;20490;-62
2022/01/01 02:55:10;;;;;;;24.33;14.80;;;12.20;1.00;;;;;;5057696;28;20945;-62
2022/01/01 02:57:39;;;;;;;25.63;15.63;;;12.30;1.00;;;;;;5057127;28;20486;-62
2022/01/01 03:00:07;;;;;;;26.90;17.10;;;12.20;22.80;;;;;;5057540;28;20462;-62
2022/01/01 03:02:34;;;;;;;23.30;15.80;;;12.20;99.90;;;;;;5054989;28;20470;-62
2022/01/01 03:05:01;;;;;;;22.57;17.00;;;12.20;99.90;;;;;;5057057;28;20577;-62
2022/01/01 03:07:28;;;;;;;24.50;16.20;;;12.20;99.90;;;;;;5057820;28;20524;-62
2022/01/01 03:09:55;;;;;;;25.37;17.50;;;12.20;1.00;;;;;;5058258;28;20514;-62
2022/01/01 03:12:23;;;;;;;25.00;18.00;;;12.10;99.90;;;;;;5058359;28;20887;-62
2022/01/01 03:14:50;;;;;;;31.47;19.60;;;12.10;1.00;;;;;;5058401;28;20737;-63
2022/01/01 03:17:17;;;;;;;21.70;16.57;;;12.10;1.00;;;;;;5058393;28;20470;-62
2022/01/01 03:19:44;;;;;;;24.83;17.83;;;12.10;1.00;;;;;;5058293;28;20512;-62
2022/01/01 03:22:11;;;;;;;23.97;15.37;;;12.20;99.90;;;;;;5058211;28;21001;-62
2022/01/01 03:24:40;;;;;;;23.83;15.80;;;12.20;81.20;;;;;;5058608;28;20490;-62
2022/01/01 03:27:10;;;;;;;26.30;16.93;;;12.20;1.00;;;;;;5057980;28;20469;-62
2022/01/01 03:29:38;;;;;;;28.10;17.77;;;12.20;1.00;;;;;;5058264;28;20459;-62
2022/01/01 03:32:06;;;;;;;21.80;14.63;;;12.20;1.00;;;;;;5058073;28;20463;-62
2022/01/01 03:34:33;;;;;;;20.87;15.00;;;12.20;99.90;;;;;;5058285;28;20728;-62
2022/01/01 03:37:01;;;;;;;22.60;15.60;;;12.20;99.90;;;;;;5058153;28;20437;-62
2022/01/01 03:39:28;;;;;;;23.80;15.33;;;12.20;99.90;;;;;;5058336;28;20463;-62
2022/01/01 03:41:55;;;;;;;23.13;13.93;;;12.20;99.90;;;;;;5057566;28;20540;-62
2022/01/01 03:44:22;;;;;;;21.27;14.60;;;12.20;99.90;;;;;;5058015;28;20544;-63
2022/01/01 03:46:51;;;;;;;21.83;12.70;;;12.10;99.90;;;;;;5057441;28;20512;-62
2022/01/01 03:49:18;;;;;;;20.90;12.00;;;12.10;63.40;;;;;;5058117;28;20466;-62
2022/01/01 03:51:45;;;;;;;19.43;12.30;;;12.20;1.00;;;;;;5057880;28;20458;-62
2022/01/01 03:54:14;;;;;;;18.97;12.17;;;12.20;1.00;;;;;;5057758;28;20524;-62
2022/01/01 03:56:41;;;;;;;20.43;12.47;;;12.20;1.00;;;;;;5056629;28;20477;-62
2022/01/01 03:59:08;;;;;;;20.27;11.57;;;12.20;1.00;;;;;;5057019;28;20966;-62
2022/01/01 04:01:35;;;;;;;18.30;11.30;;;12.30;1.00;;;;;;5056705;28;20459;-62
2022/01/01 04:04:04;;;;;;;18.20;11.50;;;12.10;1.00;;;;;;5056216;28;20497;-62
2022/01/01 04:06:31;;;;;;;18.53;10.30;;;12.20;1.00;;;;;;5056714;28;20755;-62
2022/01/01 04:08:58;;;;;;;15.13;10.60;;;12.20;1.00;;;;;;5056546;28;20462;-62
2022/01/01 04:11:24;;;;;;;17.83;11.00;;;12.20;1.00;;;;;;5056361;28;20545;-62
2022/01/01 04:13:51;;;;;;;28.30;10.80;;;12.20;1.00;;;;;;5056285;28;20535;-62
2022/01/01 04:16:19;;;;;;;18.23;9.80;;;12.20;99.90;;;;;;5056193;28;20864;-62
2022/01/01 04:18:46;;;;;;;17.37;9.03;;;12.20;99.90;;;;;;5055994;28;20441;-62
2022/01/01 04:21:15;;;;;;;14.47;9.03;;;12.20;99.90;;;;;;5056166;28;20519;-62
2022/01/01 04:23:44;;;;;;;17.90;7.83;;;12.20;99.90;;;;;;5056451;28;20511;-62
2022/01/01 04:26:11;;;;;;;18.53;8.50;;;12.20;38.40;;;;;;5056203;28;21010;-62
2022/01/01 04:28:40;;;;;;;22.50;8.00;;;12.20;1.00;;;;;;5056454;28;20512;-62
2022/01/01 04:31:07;;;;;;;12.23;7.57;;;12.20;1.00;;;;;;5056750;28;20466;-62
2022/01/01 04:33:34;;;;;;;12.97;8.50;;;12.30;1.00;;;;;;5056860;28;20458;-62
2022/01/01 04:36:01;;;;;;;11.80;7.73;;;12.20;1.00;;;;;;5056334;28;20436;-62
2022/01/01 04:38:37;;;;;;;20.00;8.70;;;12.20;1.00;;;;;;5056567;28;20466;-62
2022/01/01 04:41:05;;;;;;;10.47;7.40;;;12.30;1.00;;;;;;5056749;28;20445;-62
2022/01/01 04:43:32;;;;;;;15.53;7.70;;;12.20;1.00;;;;;;5056262;28;20528;-62
2022/01/01 04:45:59;;;;;;;12.47;7.23;;;12.20;1.00;;;;;;5056134;28;20497;-62
2022/01/01 04:48:26;;;;;;;10.77;7.87;;;12.20;1.00;;;;;;5056466;28;20950;-61
2022/01/01 04:50:53;;;;;;;15.23;7.70;;;12.30;1.00;;;;;;5056292;28;20466;-62
2022/01/01 04:53:20;;;;;;;13.40;8.23;;;12.30;1.00;;;;;;5056414;28;20584;-62
2022/01/01 04:55:50;;;;;;;11.83;7.20;;;12.30;1.00;;;;;;5055667;28;20465;-62
2022/01/01 04:58:17;;;;;;;13.23;7.73;;;12.30;1.00;;;;;;5056209;28;20760;-62
2022/01/01 05:00:44;;;;;;;14.67;8.07;;;12.20;1.00;;;;;;5056197;28;20569;-62
2022/01/01 05:03:11;;;;;;;11.23;6.70;;;12.20;1.00;;;;;;5056365;28;20888;-62
2022/01/01 05:05:39;;;;;;;16.07;7.67;;;12.20;1.00;;;;;;5056712;28;20530;-62
2022/01/01 05:08:07;;;;;;;12.97;7.50;;;12.20;1.00;;;;;;5055849;28;20492;-62
2022/01/01 05:10:33;;;;;;;13.07;9.10;;;12.20;1.00;;;;;;5055665;28;20775;-62
2022/01/01 05:13:03;;;;;;;15.67;8.40;;;12.20;1.00;;;;;;5055692;28;20516;-62
2022/01/01 05:15:30;;;;;;;15.73;7.80;;;12.20;1.00;;;;;;5056181;28;20462;-62
2022/01/01 05:17:57;;;;;;;12.93;7.57;;;12.30;1.00;;;;;;5056277;28;20461;-62
2022/01/01 05:20:24;;;;;;;18.27;9.10;;;12.30;1.00;;;;;;5056491;28;20527;-62
2022/01/01 05:22:52;;;;;;;19.53;9.70;;;12.20;1.00;;;;;;5055395;28;20459;-62
2022/01/01 05:25:18;;;;;;;15.13;8.60;;;12.20;14.30;;;;;;5056003;28;20494;-62
2022/01/01 05:27:46;;;;;;;13.67;8.20;;;12.20;24.30;;;;;;5056110;28;20543;-62
2022/01/01 05:30:14;;;;;;;12.93;8.20;;;12.20;99.90;;;;;;5058528;28;20531;-63
2022/01/01 05:32:41;;;;;;;14.57;8.70;;;12.20;99.90;;;;;;5059358;28;20515;-62
2022/01/01 05:35:08;;;;;;;17.70;9.00;;;12.20;99.90;;;;;;5059609;28;20524;-62
2022/01/01 05:37:35;;;;;;;17.07;8.93;;;12.20;99.90;;;;;;5059600;28;20764;-62
2022/01/01 05:40:03;;;;;;;14.93;8.30;;;12.20;99.90;;;;;;5059296;28;20462;-62
2022/01/01 05:42:30;;;;;;;13.57;9.00;;;12.20;99.90;;;;;;5059226;28;20461;-62
2022/01/01 05:44:57;;;;;;;14.93;8.27;;;12.30;99.90;;;;;;5059556;28;20498;-62
2022/01/01 05:47:25;;;;;;;13.80;9.30;;;12.30;99.90;;;;;;5059380;28;20462;-62
2022/01/01 05:49:52;;;;;;;15.60;9.27;;;12.20;99.90;;;;;;5058662;28;20473;-61
2022/01/01 05:52:19;;;;;;;11.20;8.10;;;12.20;99.90;;;;;;5058996;28;20467;-62
2022/01/01 05:54:46;;;;;;;21.03;10.07;;;12.20;99.90;;;;;;5059140;28;20573;-62
2022/01/01 05:57:13;;;;;;;13.07;8.60;;;12.10;99.90;;;;;;5059710;28;20553;-62
2022/01/01 05:59:41;;;;;;;16.03;8.00;;;12.10;99.90;;;;;;5059014;28;20532;-62
2022/01/01 06:02:09;;;;;;;11.93;6.73;;;12.20;99.90;;;;;;5059163;28;20956;-62
2022/01/01 06:04:38;;;;;;;14.40;7.33;;;12.20;99.90;;;;;;5058870;28;20437;-62
2022/01/01 06:07:07;;;;;;;16.40;8.43;;;12.20;99.90;;;;;;5058984;28;20809;-62
2022/01/01 06:09:34;;;;;;;11.70;7.60;;;12.20;99.90;;;;;;5058760;28;20959;-62
2022/01/01 06:12:01;;;;;;;17.20;7.63;;;12.20;99.90;;;;;;5058425;28;20887;-62
2022/01/01 06:14:28;;;;;;;11.13;7.53;;;12.20;99.90;;;;;;5058252;28;20520;-62
2022/01/01 06:16:55;;;;;;;11.30;7.53;;;12.20;99.90;;;;;;5058948;28;20458;-62
2022/01/01 06:19:25;;;;;;;12.03;7.27;;;12.20;99.90;;;;;;5058872;28;20555;-62
2022/01/01 06:21:53;;;;;;;15.13;6.30;;;12.10;99.90;;;;;;5058443;28;20741;-62
2022/01/01 06:24:20;;;;;;;14.27;6.87;;;12.10;99.90;;;;;;5058229;28;20466;-62
2022/01/01 06:26:50;;;;;;;18.33;6.77;;;12.10;99.90;;;;;;5058600;28;20831;-62
2022/01/01 06:29:17;;;;;;;11.03;5.67;;;12.10;99.90;;;;;;5058642;28;20523;-61
2022/01/01 06:31:44;;;;;;;11.63;6.90;;;12.20;1.00;;;;;;5058699;28;20458;-62
2022/01/01 06:34:11;;;;;;;15.93;6.93;;;12.20;1.00;;;;;;5058140;28;20466;-62
2022/01/01 06:36:38;;;;;;;14.80;7.13;;;12.20;1.00;;;;;;5058265;28;20462;-61
2022/01/01 06:39:06;;;;;;;9.53;6.83;;;12.20;1.00;;;;;;5058343;28;20757;-61
2022/01/01 06:41:33;;;;;;;11.17;6.20;;;12.10;1.00;;;;;;5058388;28;20591;-62
2022/01/01 06:44:00;;;;;;;10.57;6.40;;;12.10;1.00;;;;;;5058104;28;20903;-62
2022/01/01 06:46:27;;;;;;;10.67;6.80;;;12.10;1.00;;;;;;5058485;28;20505;-62
2022/01/01 06:48:54;;;;;;;8.47;6.77;;;12.10;1.40;;;;;;5058566;28;20489;-61
2022/01/01 06:51:21;;;;;;;12.30;6.03;;;12.20;1.00;;;;;;5058217;28;20463;-62
2022/01/01 06:53:48;;;;;;;11.93;6.73;;;12.10;1.00;;;;;;5057831;28;20523;-61
2022/01/01 06:56:19;;;;;;;10.73;6.17;;;12.10;1.00;;;;;;5058085;28;20512;-60
2022/01/01 06:58:46;;;;;;;10.73;6.07;;;12.20;1.00;;;;;;5058183;28;20524;-62
2022/01/01 07:01:13;;;;;;;15.60;6.10;;;12.20;1.00;;;;;;5057466;28;20524;-62
2022/01/01 07:03:40;;;;;;;9.77;5.30;;;12.20;1.00;;;;;;5058086;28;20749;-62
2022/01/01 07:06:07;;;;;;;9.27;5.73;;;12.30;1.00;;;;;;5057331;28;20494;-62
2022/01/01 07:08:34;;;;;;;13.50;6.20;;;12.20;1.00;;;;;;5057560;28;20466;-62
2022/01/01 07:11:01;;;;;;;10.30;5.90;;;12.20;1.00;;;;;;5056389;28;20492;-61
2022/01/01 07:13:29;;;;;;;9.63;5.43;;;12.20;1.00;;;;;;5057028;28;20437;-61
2022/01/01 07:15:59;;;;;;;11.07;5.63;;;12.20;1.00;;;;;;5057196;28;20516;-61
2022/01/01 07:18:26;;;;;;;12.10;5.30;;;12.10;1.00;;;;;;5057862;28;20516;-62
2022/01/01 07:20:53;;;;;;;17.23;6.63;;;12.10;1.00;;;;;;5057576;28;20470;-60
2022/01/01 07:23:20;;;;;;;9.67;5.47;;;12.10;1.00;;;;;;5057916;28;20462;-62
2022/01/01 07:25:47;;;;;;;8.80;5.27;;;12.10;1.00;;;;;;5057505;28;20790;-61
2022/01/01 07:28:16;;;;;;;6.30;4.37;;;12.10;1.00;;;;;;5057470;28;20800;-59
2022/01/01 07:30:45;;;;;;;11.13;5.70;;;12.10;1.00;;;;;;5056979;28;20470;-61
2022/01/01 07:33:13;;;;;;;14.70;5.47;;;12.10;1.00;;;;;;5057143;28;20489;-61
2022/01/01 07:35:41;;;;;;;11.37;5.60;;;12.00;1.00;;;;;;5057439;28;20899;-61
2022/01/01 07:38:08;;;;;;;10.80;5.50;;;12.10;1.00;;;;;;5057135;28;20466;-61
2022/01/01 07:40:36;;;;;;;11.27;5.97;;;12.10;1.00;;;;;;5057184;28;20532;-61
2022/01/01 07:43:03;;;;;;;19.20;10.90;;;12.10;1.00;;;;;;5057211;28;20485;-61
2022/01/01 07:45:30;;;;;;;12.20;7.90;;;12.10;1.00;;;;;;5056970;28;20466;-61
2022/01/01 07:47:58;;;;;;;14.57;5.40;;;12.00;1.00;;;;;;5056755;28;20466;-61
2022/01/01 07:50:25;;;;;;;14.03;5.83;;;12.10;1.00;;;;;;5056903;28;20462;-59
2022/01/01 07:52:52;;;;;;;12.50;6.90;;;12.10;1.00;;;;;;5056649;28;20462;-61
2022/01/01 07:55:19;;;;;;;10.60;5.70;;;12.00;1.00;;;;;;5057020;28;20462;-61
2022/01/01 07:57:49;;;;;;;8.57;5.20;;;12.10;1.00;;;;;;5057128;28;20741;-61
2022/01/01 08:00:17;;;;;;;11.93;4.80;;;12.10;1.00;;;;;;5056425;28;20758;-59
2022/01/01 08:02:45;;;;;;;10.70;5.30;;;12.10;1.00;;;;;;5055171;28;20537;-61
2022/01/01 08:05:16;;;;;;;9.90;5.23;;;12.10;1.00;;;;;;5055422;28;20458;-61
2022/01/01 08:07:43;;;;;;;9.60;5.40;;;12.10;1.00;;;;;;5056257;28;20498;-61
2022/01/01 08:10:11;;;;;;;16.93;4.77;;;12.10;1.00;;;;;;5055958;28;20490;-59
2022/01/01 08:12:40;;;;;;;9.20;4.60;;;12.20;1.00;;;;;;5055971;28;20825;-60
2022/01/01 08:15:09;;;;;;;8.80;5.17;;;12.10;1.00;;;;;;5056548;28;20520;-61
2022/01/01 08:17:36;;;;;;;11.57;5.60;;;12.20;1.00;;;;;;5056063;28;20536;-61
2022/01/01 08:20:04;;;;;;;11.80;4.97;;;12.20;1.00;;;;;;5056407;28;20463;-60
2022/01/01 08:22:35;;;;;;;10.27;4.80;;;12.20;1.00;;;;;;5056248;28;20462;-61
2022/01/01 08:25:02;;;;;;;11.60;5.57;;;12.20;1.00;;;;;;5056696;28;20517;-60
2022/01/01 08:27:29;;;;;;;11.90;5.50;;;12.20;99.90;;;;;;5056565;28;20563;-60
2022/01/01 08:29:56;;;;;;;8.20;4.37;;;12.20;99.90;;;;;;5056008;28;20462;-61
2022/01/01 08:32:23;;;;;;;11.53;5.30;;;12.30;99.90;;;;;;5056130;28;20891;-61
2022/01/01 08:34:50;;;;;;;6.73;4.20;;;12.30;99.90;;;;;;5057006;28;20458;-61
2022/01/01 08:37:17;;;;;;;15.47;4.30;;;12.30;99.90;;;;;;5056466;28;20519;-61
2022/01/01 08:39:47;;;;;;;12.23;5.43;;;12.30;99.90;;;;;;5056967;28;20433;-61
2022/01/01 08:42:17;;;;;;;11.57;4.70;;;12.30;99.90;;;;;;5056292;28;20462;-60
2022/01/01 08:44:44;;;;;;;7.27;4.43;;;12.40;99.90;;;;;;5056515;28;20470;-61
2022/01/01 08:47:11;;;;;;;10.67;5.17;;;12.40;99.90;;;;;;5056662;28;20494;-61
2022/01/01 08:49:38;;;;;;;12.37;4.70;;;12.40;99.90;;;;;;5056119;28;20883;-60
2022/01/01 08:52:06;;;;;;;7.70;5.10;;;12.40;99.90;;;;;;5056058;28;20871;-61
2022/01/01 08:54:34;;;;;;;11.47;4.90;;;12.40;99.90;;;;;;5056421;28;20748;-61
2022/01/01 08:57:03;;;;;;;11.50;4.20;;;12.40;99.90;;;;;;5056247;28;20489;-61
2022/01/01 08:59:30;;;;;;;9.60;5.30;;;12.40;99.90;;;;;;5056416;28;20466;-60
2022/01/01 09:01:57;;;;;;;12.87;5.53;;;12.40;99.90;;;;;;5055850;28;20473;-60
2022/01/01 09:04:24;;;;;;;11.03;4.93;;;12.40;99.90;;;;;;5058188;28;20469;-61
2022/01/01 09:06:54;;;;;;;10.00;4.90;;;12.40;99.90;;;;;;5059932;28;20561;-61
2022/01/01 09:09:20;;;;;;;9.10;4.40;;;12.40;99.90;;;;;;5059995;28;20495;-61
2022/01/01 09:11:47;;;;;;;10.70;4.20;;;12.50;99.90;;;;;;5059452;28;20542;-61
2022/01/01 09:14:16;;;;;;;10.80;5.00;;;12.50;99.90;;;;;;5059423;28;20466;-60
2022/01/01 09:16:43;;;;;;;12.47;5.27;;;12.50;99.90;;;;;;5059748;28;20462;-61
2022/01/01 09:19:10;;;;;;;12.50;7.33;;;12.60;99.90;;;;;;5059546;28;20516;-58
2022/01/01 09:21:37;;;;;;;6.20;4.03;;;12.60;99.90;;;;;;5060125;28;20469;-61
2022/01/01 09:24:04;;;;;;;9.10;4.57;;;12.50;99.90;;;;;;5059730;28;20765;-61
2022/01/01 09:26:34;;;;;;;13.70;8.90;;;12.60;99.90;;;;;;5059549;28;20490;-59
2022/01/01 09:29:01;;;;;;;14.83;7.90;;;12.60;99.90;;;;;;5060051;28;20929;-59
2022/01/01 09:31:29;;;;;;;20.73;12.33;;;12.70;91.90;;;;;;5059456;28;20880;-61
2022/01/01 09:33:56;;;;;;;15.77;11.90;;;13.00;82.30;;;;;;5059060;28;20466;-61
2022/01/01 09:36:24;;;;;;;25.00;18.40;;;13.30;31.20;;;;;;5059318;28;20515;-59
2022/01/01 09:38:51;;;;;;;23.73;16.13;;;13.50;2.80;;;;;;5059293;28;20509;-60
2022/01/01 09:41:18;;;;;;;27.97;15.23;;;13.70;1.00;;;;;;5059696;28;20466;-60
2022/01/01 09:43:46;;;;;;;7.73;4.97;;;13.80;1.00;;;;;;5059775;28;20520;-60
2022/01/01 09:46:14;;;;;;;6.47;5.40;;;14.00;1.00;;;;;;5059068;28;20493;-60
2022/01/01 09:48:43;;;;;;;9.63;6.47;;;14.10;1.00;;;;;;5059441;28;20490;-60
2022/01/01 09:51:10;;;;;;;8.70;4.83;;;13.90;1.00;;;;;;5059063;28;20462;-59
2022/01/01 09:53:37;;;;;;;9.33;5.33;;;13.70;1.00;;;;;;5058780;28;20766;-60
2022/01/01 09:56:06;;;;;;;7.00;4.60;;;13.70;1.00;;;;;;5058873;28;20465;-60
2022/01/01 09:58:34;;;;;;;6.20;4.13;;;13.60;1.00;;;;;;5059154;28;20552;-60
2022/01/01 10:01:03;;;;;;;9.17;4.23;;;13.60;1.00;;;;;;5059186;28;20524;-61
2022/01/01 10:03:33;;;;;;;9.87;3.57;;;13.50;1.00;;;;;;5059129;28;20553;-61
2022/01/01 10:06:04;;;;;;;6.80;3.67;;;13.50;1.00;;;;;;5058846;28;20462;-59
2022/01/01 10:08:34;;;;;;;6.30;3.40;;;13.60;1.00;;;;;;5058858;28;20875;-59
2022/01/01 10:11:01;;;;;;;7.50;4.37;;;13.80;1.00;;;;;;5054572;28;20482;-59
2022/01/01 10:13:36;;;;;;;7.07;4.37;;;13.80;1.00;;;;;;5053226;28;20462;-61
2022/01/01 10:16:06;;;;;;;9.33;4.37;;;14.00;1.00;;;;;;5046720;28;20472;-60
2022/01/01 10:18:36;;;;;;;9.50;4.00;;;14.10;1.00;;;;;;5052277;28;20474;-59
2022/01/01 10:21:08;;;;;;;5.67;3.53;;;14.20;1.00;;;;;;5056795;28;20454;-60
2022/01/01 10:23:36;;;;;;;8.63;4.30;;;14.30;1.00;;;;;;5057207;28;20458;-61
2022/01/01 10:29:16;;;;;;;6.83;3.67;;;14.30;1.00;;;;;;5040376;28;20819;-57
2022/01/01 10:31:56;;;;;;;7.03;4.30;;;14.20;1.00;;;;;;5057566;28;20587;-60
2022/01/01 10:34:26;;;;;;;5.93;3.60;;;14.30;1.00;;;;;;5056730;28;20462;-60
2022/01/01 10:36:55;;;;;;;7.37;3.77;;;14.30;1.00;;;;;;5057930;28;20486;-60
2022/01/01 10:39:22;;;;;;;5.10;3.27;;;14.30;1.00;;;;;;5053956;28;20523;-59
2022/01/01 10:41:52;;;;;;;5.67;3.90;;;14.20;1.00;;;;;;5057296;28;20480;-60
2022/01/01 10:44:27;;;;;;;7.43;3.60;;;14.20;1.00;;;;;;5056917;28;20824;-60
2022/01/01 10:46:56;;;;;;;4.90;3.83;;;14.20;1.00;;;;;;5057680;28;20528;-60
2022/01/01 10:49:49;;;;;;;9.40;4.50;;;14.20;1.00;;;;;;5050982;28;20520;-59
2022/01/01 10:52:28;;;;;;;6.93;3.93;;;14.20;1.00;;;;;;5048295;28;20470;-58
2022/01/01 10:54:58;;;;;;;9.33;3.80;;;14.20;1.00;;;;;;5050463;28;20472;-60
2022/01/01 10:57:27;;;;;;;5.17;3.57;;;14.30;1.00;;;;;;5056333;28;20496;-59
2022/01/01 11:00:09;;;;;;;7.43;3.87;;;14.30;1.00;;;;;;5045356;28;20474;-60
2022/01/01 11:02:38;;;;;;;6.27;3.77;;;14.40;1.00;;;;;;5057922;28;20469;-60
2022/01/01 11:05:06;;;;;;;7.73;3.23;;;14.50;1.00;;;;;;5056764;28;20927;-60
2022/01/01 11:07:40;;;;;;;9.77;4.23;;;14.70;1.00;;;;;;5038186;28;20495;-60
2022/01/01 11:10:10;;;;;;;5.80;3.30;;;14.70;1.00;;;;;;5037472;28;20487;-60
2022/01/01 11:12:37;;;;;;;9.23;4.20;;;14.60;1.00;;;;;;5054807;28;20475;-59
2022/01/01 11:15:07;;;;;;;8.17;6.50;;;14.60;1.00;;;;;;5054010;28;20969;-60
2022/01/01 11:17:36;;;;;;;8.73;4.80;;;14.60;1.00;;;;;;5052657;28;20508;-60
2022/01/01 11:20:05;;;;;;;12.60;8.77;;;14.50;1.00;;;;;;5055306;28;20483;-59
2022/01/01 11:22:32;;;;;;;12.17;8.90;;;14.50;1.00;;;;;;5045320;28;20834;-58
2022/01/01 11:25:00;;;;;;;11.30;7.07;;;14.30;1.00;;;;;;5049778;28;20552;-58
2022/01/01 11:27:31;;;;;;;8.13;5.63;;;14.30;1.00;;;;;;5052877;28;21010;-56
2022/01/01 11:30:00;;;;;;;12.53;7.50;;;14.20;1.00;;;;;;5050050;28;20565;-59
2022/01/01 11:32:42;;;;;;;17.07;9.70;;;14.30;1.00;;;;;;5054289;28;20466;-57
2022/01/01 11:35:16;;;;;;;14.50;7.70;;;14.40;1.00;;;;;;5055495;28;20918;-58
2022/01/01 11:37:59;;;;;;;11.97;6.77;;;14.50;1.00;;;;;;5049855;28;20490;-55
2022/01/01 11:40:29;;;;;;;10.70;5.70;;;14.60;1.00;;;;;;5050693;28;20476;-57
2022/01/01 11:42:56;;;;;;;6.50;4.20;;;14.80;1.00;;;;;;5053638;28;20454;-56
2022/01/01 11:45:43;;;;;;;14.90;7.00;;;15.00;1.00;;;;;;5051095;28;20554;-58
2022/01/01 11:48:30;;;;;;;4.83;3.93;;;15.10;1.00;;;;;;5053685;28;20509;-56
2022/01/01 11:51:22;;;;;;;8.50;6.20;;;15.20;1.00;;;;;;5047863;28;20467;-57
2022/01/01 11:54:11;;;;;;;7.37;5.37;;;15.40;1.00;;;;;;5046546;28;20462;-58
2022/01/01 11:56:58;;;;;;;9.73;5.90;;;15.50;1.00;;;;;;5053446;28;20832;-53
2022/01/01 11:59:27;;;;;;;5.60;4.20;;;15.60;1.00;;;;;;5054453;28;20464;-54
2022/01/01 12:01:56;;;;;;;5.10;4.20;;;15.40;1.00;;;;;;5049967;28;20462;-53
2022/01/01 12:04:24;;;;;;;6.93;3.90;;;15.40;1.00;;;;;;5053683;28;20429;-58
2022/01/01 12:06:53;;;;;;;5.57;3.50;;;15.30;1.00;;;;;;5052451;28;20466;-57
2022/01/01 12:09:23;;;;;;;10.40;5.40;;;15.10;1.00;;;;;;5054443;28;20490;-55
2022/01/01 12:11:57;;;;;;;6.20;4.50;;;14.80;1.00;;;;;;5050590;28;20830;-56
2022/01/01 12:14:26;;;;;;;5.77;4.07;;;14.60;1.00;;;;;;5055214;28;20450;-58
2022/01/01 12:16:54;;;;;;;5.87;3.80;;;14.50;1.00;;;;;;5055494;28;20469;-58
2022/01/01 12:19:23;;;;;;;5.90;3.37;;;14.30;1.00;;;;;;5053790;28;20549;-58
2022/01/01 12:22:03;;;;;;;6.00;3.50;;;14.30;1.00;;;;;;5055225;28;20454;-57
2022/01/01 12:24:34;;;;;;;5.73;3.30;;;14.20;1.00;;;;;;5055022;28;20508;-58
2022/01/01 12:27:11;;;;;;;7.33;3.47;;;14.10;1.00;;;;;;5055684;28;20508;-57
2022/01/01 12:29:38;;;;;;;5.03;3.70;;;14.10;1.00;;;;;;5051556;28;20547;-54
2022/01/01 12:32:07;;;;;;;7.10;4.00;;;14.10;1.00;;;;;;5050056;28;20551;-56
2022/01/01 12:34:38;;;;;;;5.37;4.13;;;14.10;1.00;;;;;;5054647;28;20520;-55
2022/01/01 12:37:08;;;;;;;9.07;4.27;;;14.10;1.00;;;;;;5051605;28;20892;-53
2022/01/01 12:40:02;;;;;;;5.77;3.83;;;14.20;1.00;;;;;;5054538;28;20557;-57
2022/01/01 12:42:35;;;;;;;7.10;3.83;;;14.10;1.00;;;;;;5055047;28;20437;-57
2022/01/01 12:45:08;;;;;;;5.77;3.53;;;14.00;1.00;;;;;;5057365;28;20520;-56
2022/01/01 12:47:38;;;;;;;7.00;3.57;;;14.10;1.00;;;;;;5057625;28;20521;-58
2022/01/01 12:50:07;;;;;;;6.70;4.20;;;14.10;1.00;;;;;;5057146;28;20462;-57
2022/01/01 12:52:34;;;;;;;6.10;4.30;;;14.10;1.00;;;;;;5057497;28;20911;-57